sensor_id;sensor_type;location;lat;lon;timestamp;temperature;humidity
10802;DHT22;5453;50.852;7.102;2022-11-20T00:01:26;4.90;99.90
10802;DHT22;5453;50.852;7.102;2022-11-20T00:03:59;4.90;99.90
10802;DHT22;5453;50.852;7.102;2022-11-20T00:06:32;4.80;99.90
10802;DHT22;5453;50.852;7.102;2022-11-20T00:09:05;4.80;99.90
10802;DHT22;5453;50.852;7.102;2022-11-20T00:11:37;4.80;99.90
10802;DHT22;5453;50.852;7.102;2022-11-20T00:14:09;4.90;99.90
10802;DHT22;5453;50.852;7.102;2022-11-20T00:16:42;4.90;99.90
10802;DHT22;5453;50.852;7.102;2022-11-20T00:19:14;4.90;99.90
10802;DHT22;5453;50.852;7.102;2022-11-20T00:21:46;4.90;99.90
10802;DHT22;5453;50.852;7.102;2022-11-20T00:24:23;4.90;99.90
10802;DHT22;5453;50.852;7.102;2022-11-20T00:26:55;4.90;99.90
10802;DHT22;5453;50.852;7.102;2022-11-20T00:29:27;4.90;99.90
10802;DHT22;5453;50.852;7.102;2022-11-20T00:31:59;4.90;99.90
10802;DHT22;5453;50.852;7.102;2022-11-20T00:34:31;4.80;99.90
10802;DHT22;5453;50.852;7.102;2022-11-20T00:37:03;4.90;99.90
10802;DHT22;5453;50.852;7.102;2022-11-20T00:39:37;4.90;99.90
10802;DHT22;5453;50.852;7.102;2022-11-20T00:42:09;4.90;99.90
10802;DHT22;5453;50.852;7.102;2022-11-20T00:44:41;4.90;99.90
10802;DHT22;5453;50.852;7.102;2022-11-20T00:47:13;4.90;99.90
10802;DHT22;5453;50.852;7.102;2022-11-20T00:49:45;4.90;99.90
10802;DHT22;5453;50.852;7.102;2022-11-20T00:52:17;4.90;99.90
10802;DHT22;5453;50.852;7.102;2022-11-20T00:54:51;4.90;99.90
10802;DHT22;5453;50.852;7.102;2022-11-20T00:57:23;4.80;99.90
10802;DHT22;5453;50.852;7.102;2022-11-20T00:59:55;4.80;99.90
10802;DHT22;5453;50.852;7.102;2022-11-20T01:02:27;4.80;99.90
10802;DHT22;5453;50.852;7.102;2022-11-20T01:04:59;4.70;99.90
10802;DHT22;5453;50.852;7.102;2022-11-20T01:07:32;4.70;99.90
10802;DHT22;5453;50.852;7.102;2022-11-20T01:10:07;4.70;99.90
10802;DHT22;5453;50.852;7.102;2022-11-20T01:12:40;4.70;99.90
10802;DHT22;5453;50.852;7.102;2022-11-20T01:15:12;4.70;99.90
10802;DHT22;5453;50.852;7.102;2022-11-20T01:17:44;4.70;99.90
10802;DHT22;5453;50.852;7.102;2022-11-20T01:20:16;4.70;99.90
10802;DHT22;5453;50.852;7.102;2022-11-20T01:22:48;4.70;99.90
10802;DHT22;5453;50.852;7.102;2022-11-20T01:25:22;4.70;99.90
10802;DHT22;5453;50.852;7.102;2022-11-20T01:27:54;4.70;99.90
10802;DHT22;5453;50.852;7.102;2022-11-20T01:30:26;4.70;99.90
10802;DHT22;5453;50.852;7.102;2022-11-20T01:33:00;4.80;99.90
10802;DHT22;5453;50.852;7.102;2022-11-20T01:35:32;4.80;99.90
10802;DHT22;5453;50.852;7.102;2022-11-20T01:38:04;4.80;99.90
10802;DHT22;5453;50.852;7.102;2022-11-20T01:40:37;4.80;99.90
10802;DHT22;5453;50.852;7.102;2022-11-20T01:43:16;4.70;99.90
10802;DHT22;5453;50.852;7.102;2022-11-20T01:46:01;4.80;99.90
10802;DHT22;5453;50.852;7.102;2022-11-20T01:48:49;4.80;99.90
10802;DHT22;5453;50.852;7.102;2022-11-20T01:51:27;4.80;99.90
10802;DHT22;5453;50.852;7.102;2022-11-20T01:54:05;4.80;99.90
10802;DHT22;5453;50.852;7.102;2022-11-20T01:56:43;4.70;99.90
10802;DHT22;5453;50.852;7.102;2022-11-20T01:59:17;4.70;99.90
10802;DHT22;5453;50.852;7.102;2022-11-20T02:01:50;4.70;99.90
10802;DHT22;5453;50.852;7.102;2022-11-20T02:04:23;4.70;99.90
10802;DHT22;5453;50.852;7.102;2022-11-20T02:06:59;4.80;99.90
10802;DHT22;5453;50.852;7.102;2022-11-20T02:09:32;4.80;99.90
10802;DHT22;5453;50.852;7.102;2022-11-20T02:12:06;4.80;99.90
10802;DHT22;5453;50.852;7.102;2022-11-20T02:14:59;4.80;99.90
10802;DHT22;5453;50.852;7.102;2022-11-20T02:17:30;4.80;99.90
10802;DHT22;5453;50.852;7.102;2022-11-20T02:20:03;4.70;99.90
10802;DHT22;5453;50.852;7.102;2022-11-20T02:22:41;4.70;99.90
10802;DHT22;5453;50.852;7.102;2022-11-20T02:25:20;4.70;99.90
10802;DHT22;5453;50.852;7.102;2022-11-20T02:27:52;4.60;99.90
10802;DHT22;5453;50.852;7.102;2022-11-20T02:30:25;4.60;99.90
10802;DHT22;5453;50.852;7.102;2022-11-20T02:32:58;4.50;99.90
10802;DHT22;5453;50.852;7.102;2022-11-20T02:35:42;4.50;99.90
10802;DHT22;5453;50.852;7.102;2022-11-20T02:38:16;4.50;99.90
10802;DHT22;5453;50.852;7.102;2022-11-20T02:40:50;4.50;99.90
10802;DHT22;5453;50.852;7.102;2022-11-20T02:43:22;4.60;99.90
10802;DHT22;5453;50.852;7.102;2022-11-20T02:45:55;4.60;99.90
10802;DHT22;5453;50.852;7.102;2022-11-20T02:48:27;4.60;99.90
10802;DHT22;5453;50.852;7.102;2022-11-20T02:50:59;4.60;99.90
10802;DHT22;5453;50.852;7.102;2022-11-20T02:53:31;4.60;99.90
10802;DHT22;5453;50.852;7.102;2022-11-20T02:56:07;4.70;99.90
10802;DHT22;5453;50.852;7.102;2022-11-20T02:58:39;4.70;99.90
10802;DHT22;5453;50.852;7.102;2022-11-20T03:01:11;4.70;99.90
10802;DHT22;5453;50.852;7.102;2022-11-20T03:03:43;4.70;99.90
10802;DHT22;5453;50.852;7.102;2022-11-20T03:06:15;4.70;99.90
10802;DHT22;5453;50.852;7.102;2022-11-20T03:08:47;4.70;99.90
10802;DHT22;5453;50.852;7.102;2022-11-20T03:11:21;4.70;99.90
10802;DHT22;5453;50.852;7.102;2022-11-20T03:13:53;4.70;99.90
10802;DHT22;5453;50.852;7.102;2022-11-20T03:16:25;4.70;99.90
10802;DHT22;5453;50.852;7.102;2022-11-20T03:18:58;4.70;99.90
10802;DHT22;5453;50.852;7.102;2022-11-20T03:21:34;4.70;99.90
10802;DHT22;5453;50.852;7.102;2022-11-20T03:24:07;4.70;99.90
10802;DHT22;5453;50.852;7.102;2022-11-20T03:26:41;4.70;99.90
10802;DHT22;5453;50.852;7.102;2022-11-20T03:29:13;4.80;99.90
10802;DHT22;5453;50.852;7.102;2022-11-20T03:31:46;4.80;99.90
10802;DHT22;5453;50.852;7.102;2022-11-20T03:34:18;4.80;99.90
10802;DHT22;5453;50.852;7.102;2022-11-20T03:36:51;4.80;99.90
10802;DHT22;5453;50.852;7.102;2022-11-20T03:39:23;4.80;99.90
10802;DHT22;5453;50.852;7.102;2022-11-20T03:41:57;4.80;99.90
10802;DHT22;5453;50.852;7.102;2022-11-20T03:44:29;4.80;99.90
10802;DHT22;5453;50.852;7.102;2022-11-20T03:47:01;4.80;99.90
10802;DHT22;5453;50.852;7.102;2022-11-20T03:49:33;4.80;99.90
10802;DHT22;5453;50.852;7.102;2022-11-20T03:52:05;4.90;99.90
10802;DHT22;5453;50.852;7.102;2022-11-20T03:54:37;4.80;99.90
10802;DHT22;5453;50.852;7.102;2022-11-20T03:57:11;4.80;99.90
10802;DHT22;5453;50.852;7.102;2022-11-20T03:59:44;4.80;99.90
10802;DHT22;5453;50.852;7.102;2022-11-20T04:02:16;4.80;99.90
10802;DHT22;5453;50.852;7.102;2022-11-20T04:04:48;4.80;99.90
10802;DHT22;5453;50.852;7.102;2022-11-20T04:07:20;4.80;99.90
10802;DHT22;5453;50.852;7.102;2022-11-20T04:09:52;4.80;99.90
10802;DHT22;5453;50.852;7.102;2022-11-20T04:12:25;4.90;99.90
10802;DHT22;5453;50.852;7.102;2022-11-20T04:14:57;4.80;99.90
10802;DHT22;5453;50.852;7.102;2022-11-20T04:17:29;4.80;99.90
10802;DHT22;5453;50.852;7.102;2022-11-20T04:20:02;4.80;99.90
10802;DHT22;5453;50.852;7.102;2022-11-20T04:22:35;4.80;99.90
10802;DHT22;5453;50.852;7.102;2022-11-20T04:25:08;4.90;99.90
10802;DHT22;5453;50.852;7.102;2022-11-20T04:27:41;4.80;99.90
10802;DHT22;5453;50.852;7.102;2022-11-20T04:30:13;4.80;99.90
10802;DHT22;5453;50.852;7.102;2022-11-20T04:32:46;4.80;99.90
10802;DHT22;5453;50.852;7.102;2022-11-20T04:35:18;4.80;99.90
10802;DHT22;5453;50.852;7.102;2022-11-20T04:37:51;4.70;99.90
10802;DHT22;5453;50.852;7.102;2022-11-20T04:40:24;4.70;99.90
10802;DHT22;5453;50.852;7.102;2022-11-20T04:42:58;4.80;99.90
10802;DHT22;5453;50.852;7.102;2022-11-20T04:45:31;4.80;99.90
10802;DHT22;5453;50.852;7.102;2022-11-20T04:48:04;4.80;99.90
10802;DHT22;5453;50.852;7.102;2022-11-20T04:50:39;4.80;99.90
10802;DHT22;5453;50.852;7.102;2022-11-20T04:53:12;4.80;99.90
10802;DHT22;5453;50.852;7.102;2022-11-20T04:55:44;4.80;99.90
10802;DHT22;5453;50.852;7.102;2022-11-20T04:58:19;4.80;99.90
10802;DHT22;5453;50.852;7.102;2022-11-20T05:00:51;4.70;99.90
10802;DHT22;5453;50.852;7.102;2022-11-20T05:03:23;4.80;99.90
10802;DHT22;5453;50.852;7.102;2022-11-20T05:05:55;4.70;99.90
10802;DHT22;5453;50.852;7.102;2022-11-20T05:08:27;4.70;99.90
10802;DHT22;5453;50.852;7.102;2022-11-20T05:11:00;4.70;99.90
10802;DHT22;5453;50.852;7.102;2022-11-20T05:13:35;4.70;99.90
10802;DHT22;5453;50.852;7.102;2022-11-20T05:16:08;4.70;99.90
10802;DHT22;5453;50.852;7.102;2022-11-20T05:18:41;4.70;99.90
10802;DHT22;5453;50.852;7.102;2022-11-20T05:21:14;4.70;99.90
10802;DHT22;5453;50.852;7.102;2022-11-20T05:23:47;4.70;99.90
10802;DHT22;5453;50.852;7.102;2022-11-20T05:26:20;4.70;99.90
10802;DHT22;5453;50.852;7.102;2022-11-20T05:28:54;4.70;99.90
10802;DHT22;5453;50.852;7.102;2022-11-20T05:31:26;4.70;99.90
10802;DHT22;5453;50.852;7.102;2022-11-20T05:33:58;4.70;99.90
10802;DHT22;5453;50.852;7.102;2022-11-20T05:36:30;4.70;99.90
10802;DHT22;5453;50.852;7.102;2022-11-20T05:39:02;4.70;99.90
10802;DHT22;5453;50.852;7.102;2022-11-20T05:41:35;4.70;99.90
10802;DHT22;5453;50.852;7.102;2022-11-20T05:44:10;4.70;99.90
10802;DHT22;5453;50.852;7.102;2022-11-20T05:46:42;4.70;99.90
10802;DHT22;5453;50.852;7.102;2022-11-20T05:49:14;4.70;99.90
10802;DHT22;5453;50.852;7.102;2022-11-20T05:51:46;4.70;99.90
10802;DHT22;5453;50.852;7.102;2022-11-20T05:54:18;4.70;99.90
10802;DHT22;5453;50.852;7.102;2022-11-20T05:56:50;4.70;99.90
10802;DHT22;5453;50.852;7.102;2022-11-20T05:59:24;4.70;99.90
10802;DHT22;5453;50.852;7.102;2022-11-20T06:01:56;4.70;99.90
10802;DHT22;5453;50.852;7.102;2022-11-20T06:04:28;4.70;99.90
10802;DHT22;5453;50.852;7.102;2022-11-20T06:07:00;4.80;99.90
10802;DHT22;5453;50.852;7.102;2022-11-20T06:09:32;4.80;99.90
10802;DHT22;5453;50.852;7.102;2022-11-20T06:12:05;4.80;99.90
10802;DHT22;5453;50.852;7.102;2022-11-20T06:14:39;4.80;99.90
10802;DHT22;5453;50.852;7.102;2022-11-20T06:17:11;4.70;99.90
10802;DHT22;5453;50.852;7.102;2022-11-20T06:19:43;4.80;99.90
10802;DHT22;5453;50.852;7.102;2022-11-20T06:22:15;4.80;99.90
10802;DHT22;5453;50.852;7.102;2022-11-20T06:24:47;4.80;99.90
10802;DHT22;5453;50.852;7.102;2022-11-20T06:27:19;4.80;99.90
10802;DHT22;5453;50.852;7.102;2022-11-20T06:29:52;4.80;99.90
10802;DHT22;5453;50.852;7.102;2022-11-20T06:32:24;4.80;99.90
10802;DHT22;5453;50.852;7.102;2022-11-20T06:34:56;4.80;99.90
10802;DHT22;5453;50.852;7.102;2022-11-20T06:37:28;4.80;99.90
10802;DHT22;5453;50.852;7.102;2022-11-20T06:40:00;4.80;99.90
10802;DHT22;5453;50.852;7.102;2022-11-20T06:42:33;4.80;99.90
10802;DHT22;5453;50.852;7.102;2022-11-20T06:45:07;4.80;99.90
10802;DHT22;5453;50.852;7.102;2022-11-20T06:47:40;4.80;99.90
10802;DHT22;5453;50.852;7.102;2022-11-20T06:50:12;4.80;99.90
10802;DHT22;5453;50.852;7.102;2022-11-20T06:52:44;4.80;99.90
10802;DHT22;5453;50.852;7.102;2022-11-20T06:55:16;4.80;99.90
10802;DHT22;5453;50.852;7.102;2022-11-20T06:57:48;4.80;99.90
10802;DHT22;5453;50.852;7.102;2022-11-20T07:00:23;4.80;99.90
10802;DHT22;5453;50.852;7.102;2022-11-20T07:02:55;4.90;99.90
10802;DHT22;5453;50.852;7.102;2022-11-20T07:05:27;4.80;99.90
10802;DHT22;5453;50.852;7.102;2022-11-20T07:07:59;4.80;99.90
10802;DHT22;5453;50.852;7.102;2022-11-20T07:10:32;4.80;99.90
10802;DHT22;5453;50.852;7.102;2022-11-20T07:13:04;4.80;99.90
10802;DHT22;5453;50.852;7.102;2022-11-20T07:15:38;4.80;99.90
10802;DHT22;5453;50.852;7.102;2022-11-20T07:18:10;4.90;99.90
10802;DHT22;5453;50.852;7.102;2022-11-20T07:20:42;4.90;99.90
10802;DHT22;5453;50.852;7.102;2022-11-20T07:23:15;4.90;99.90
10802;DHT22;5453;50.852;7.102;2022-11-20T07:25:47;5.00;99.90
10802;DHT22;5453;50.852;7.102;2022-11-20T07:28:19;4.90;99.90
10802;DHT22;5453;50.852;7.102;2022-11-20T07:30:53;4.90;99.90
10802;DHT22;5453;50.852;7.102;2022-11-20T07:33:25;4.90;99.90
10802;DHT22;5453;50.852;7.102;2022-11-20T07:35:58;4.90;99.90
10802;DHT22;5453;50.852;7.102;2022-11-20T07:38:31;4.90;99.90
10802;DHT22;5453;50.852;7.102;2022-11-20T07:41:03;5.00;99.90
10802;DHT22;5453;50.852;7.102;2022-11-20T07:43:35;5.00;99.90
10802;DHT22;5453;50.852;7.102;2022-11-20T07:46:08;5.00;99.90
10802;DHT22;5453;50.852;7.102;2022-11-20T07:48:40;5.00;99.90
10802;DHT22;5453;50.852;7.102;2022-11-20T07:51:12;4.90;99.90
10802;DHT22;5453;50.852;7.102;2022-11-20T07:53:45;5.00;99.90
10802;DHT22;5453;50.852;7.102;2022-11-20T07:56:17;5.00;99.90
10802;DHT22;5453;50.852;7.102;2022-11-20T07:58:49;5.00;99.90
10802;DHT22;5453;50.852;7.102;2022-11-20T08:01:22;5.00;99.90
10802;DHT22;5453;50.852;7.102;2022-11-20T08:03:54;5.00;99.90
10802;DHT22;5453;50.852;7.102;2022-11-20T08:06:26;5.00;99.90
10802;DHT22;5453;50.852;7.102;2022-11-20T08:08:58;5.00;99.90
10802;DHT22;5453;50.852;7.102;2022-11-20T08:11:31;5.10;99.90
10802;DHT22;5453;50.852;7.102;2022-11-20T08:14:20;5.10;99.90
10802;DHT22;5453;50.852;7.102;2022-11-20T08:16:54;5.10;99.90
10802;DHT22;5453;50.852;7.102;2022-11-20T08:19:26;5.10;99.90
10802;DHT22;5453;50.852;7.102;2022-11-20T08:21:58;5.20;99.90
10802;DHT22;5453;50.852;7.102;2022-11-20T08:24:30;5.20;99.90
10802;DHT22;5453;50.852;7.102;2022-11-20T08:27:02;5.20;99.90
10802;DHT22;5453;50.852;7.102;2022-11-20T08:29:34;5.30;99.90
10802;DHT22;5453;50.852;7.102;2022-11-20T08:32:08;5.30;99.90
10802;DHT22;5453;50.852;7.102;2022-11-20T08:34:40;5.40;99.90
10802;DHT22;5453;50.852;7.102;2022-11-20T08:37:12;5.70;99.90
10802;DHT22;5453;50.852;7.102;2022-11-20T08:39:44;6.00;99.90
10802;DHT22;5453;50.852;7.102;2022-11-20T08:42:17;6.10;99.90
10802;DHT22;5453;50.852;7.102;2022-11-20T08:44:49;7.20;99.90
10802;DHT22;5453;50.852;7.102;2022-11-20T08:47:22;8.90;99.90
10802;DHT22;5453;50.852;7.102;2022-11-20T08:49:54;9.20;99.90
10802;DHT22;5453;50.852;7.102;2022-11-20T08:52:26;8.80;99.90
10802;DHT22;5453;50.852;7.102;2022-11-20T08:54:58;8.40;99.90
10802;DHT22;5453;50.852;7.102;2022-11-20T08:57:31;7.90;99.90
10802;DHT22;5453;50.852;7.102;2022-11-20T09:00:05;7.50;99.90
10802;DHT22;5453;50.852;7.102;2022-11-20T09:02:39;7.20;99.90
10802;DHT22;5453;50.852;7.102;2022-11-20T09:05:11;7.00;99.90
10802;DHT22;5453;50.852;7.102;2022-11-20T09:07:43;6.80;99.90
10802;DHT22;5453;50.852;7.102;2022-11-20T09:10:15;6.70;99.90
10802;DHT22;5453;50.852;7.102;2022-11-20T09:12:48;6.60;99.90
10802;DHT22;5453;50.852;7.102;2022-11-20T09:15:21;6.50;99.90
10802;DHT22;5453;50.852;7.102;2022-11-20T09:17:57;6.40;99.90
10802;DHT22;5453;50.852;7.102;2022-11-20T09:20:31;6.40;99.90
10802;DHT22;5453;50.852;7.102;2022-11-20T09:23:03;6.40;99.90
10802;DHT22;5453;50.852;7.102;2022-11-20T09:25:35;6.30;99.90
10802;DHT22;5453;50.852;7.102;2022-11-20T09:28:07;6.30;99.90
10802;DHT22;5453;50.852;7.102;2022-11-20T09:30:39;6.30;99.90
10802;DHT22;5453;50.852;7.102;2022-11-20T09:33:12;6.20;99.90
10802;DHT22;5453;50.852;7.102;2022-11-20T09:35:44;6.20;99.90
10802;DHT22;5453;50.852;7.102;2022-11-20T09:38:16;6.30;99.90
10802;DHT22;5453;50.852;7.102;2022-11-20T09:40:55;6.20;99.90
10802;DHT22;5453;50.852;7.102;2022-11-20T09:43:39;6.30;99.90
10802;DHT22;5453;50.852;7.102;2022-11-20T09:46:22;6.30;99.90
10802;DHT22;5453;50.852;7.102;2022-11-20T09:49:13;6.40;99.90
10802;DHT22;5453;50.852;7.102;2022-11-20T09:51:57;6.50;99.90
10802;DHT22;5453;50.852;7.102;2022-11-20T09:54:33;6.60;99.90
10802;DHT22;5453;50.852;7.102;2022-11-20T09:57:10;6.70;99.90
10802;DHT22;5453;50.852;7.102;2022-11-20T09:59:46;6.60;99.90
10802;DHT22;5453;50.852;7.102;2022-11-20T10:02:27;6.70;99.90
10802;DHT22;5453;50.852;7.102;2022-11-20T10:05:06;6.70;99.90
10802;DHT22;5453;50.852;7.102;2022-11-20T10:07:47;6.70;99.90
10802;DHT22;5453;50.852;7.102;2022-11-20T10:10:28;6.60;99.90
10802;DHT22;5453;50.852;7.102;2022-11-20T10:13:17;6.60;99.90
10802;DHT22;5453;50.852;7.102;2022-11-20T10:16:03;6.50;99.90
10802;DHT22;5453;50.852;7.102;2022-11-20T10:18:55;6.50;99.90
10802;DHT22;5453;50.852;7.102;2022-11-20T10:21:55;6.50;99.90
10802;DHT22;5453;50.852;7.102;2022-11-20T10:24:42;6.50;99.90
10802;DHT22;5453;50.852;7.102;2022-11-20T10:30:38;6.50;99.90
10802;DHT22;5453;50.852;7.102;2022-11-20T10:33:19;6.60;99.90
10802;DHT22;5453;50.852;7.102;2022-11-20T10:35:58;6.60;99.90
10802;DHT22;5453;50.852;7.102;2022-11-20T10:38:38;6.50;99.90
10802;DHT22;5453;50.852;7.102;2022-11-20T10:41:17;6.50;99.90
10802;DHT22;5453;50.852;7.102;2022-11-20T10:44:03;6.50;99.90
10802;DHT22;5453;50.852;7.102;2022-11-20T10:46:39;6.50;99.90
10802;DHT22;5453;50.852;7.102;2022-11-20T10:49:14;6.60;99.90
10802;DHT22;5453;50.852;7.102;2022-11-20T10:51:52;6.60;99.90
10802;DHT22;5453;50.852;7.102;2022-11-20T10:54:36;6.50;99.90
10802;DHT22;5453;50.852;7.102;2022-11-20T10:57:20;6.50;99.90
10802;DHT22;5453;50.852;7.102;2022-11-20T11:00:05;6.50;99.90
10802;DHT22;5453;50.852;7.102;2022-11-20T11:02:42;6.40;99.90
10802;DHT22;5453;50.852;7.102;2022-11-20T11:05:29;6.40;99.90
10802;DHT22;5453;50.852;7.102;2022-11-20T11:08:10;6.50;99.90
10802;DHT22;5453;50.852;7.102;2022-11-20T11:10:50;6.50;99.90
10802;DHT22;5453;50.852;7.102;2022-11-20T11:13:24;6.50;99.90
10802;DHT22;5453;50.852;7.102;2022-11-20T11:15:58;6.50;99.90
10802;DHT22;5453;50.852;7.102;2022-11-20T11:18:31;6.50;99.90
10802;DHT22;5453;50.852;7.102;2022-11-20T11:21:05;6.50;99.90
10802;DHT22;5453;50.852;7.102;2022-11-20T11:23:39;6.50;99.90
10802;DHT22;5453;50.852;7.102;2022-11-20T11:26:21;6.50;99.90
10802;DHT22;5453;50.852;7.102;2022-11-20T11:28:55;6.50;99.90
10802;DHT22;5453;50.852;7.102;2022-11-20T11:31:30;6.50;99.90
10802;DHT22;5453;50.852;7.102;2022-11-20T11:34:06;6.50;99.90
10802;DHT22;5453;50.852;7.102;2022-11-20T11:36:38;6.60;99.90
10802;DHT22;5453;50.852;7.102;2022-11-20T11:39:15;6.60;99.90
10802;DHT22;5453;50.852;7.102;2022-11-20T11:41:49;6.70;99.90
10802;DHT22;5453;50.852;7.102;2022-11-20T11:44:24;6.70;99.90
10802;DHT22;5453;50.852;7.102;2022-11-20T11:47:22;6.80;99.90
10802;DHT22;5453;50.852;7.102;2022-11-20T11:50:14;6.80;99.90
10802;DHT22;5453;50.852;7.102;2022-11-20T11:52:55;6.80;99.90
10802;DHT22;5453;50.852;7.102;2022-11-20T11:55:35;6.70;99.90
10802;DHT22;5453;50.852;7.102;2022-11-20T11:58:19;6.70;99.90
10802;DHT22;5453;50.852;7.102;2022-11-20T12:01:04;6.70;99.90
10802;DHT22;5453;50.852;7.102;2022-11-20T12:03:43;6.80;99.90
10802;DHT22;5453;50.852;7.102;2022-11-20T12:06:18;6.80;99.90
10802;DHT22;5453;50.852;7.102;2022-11-20T12:08:53;6.80;99.90
10802;DHT22;5453;50.852;7.102;2022-11-20T12:11:32;6.80;99.90
10802;DHT22;5453;50.852;7.102;2022-11-20T12:14:14;6.80;99.90
10802;DHT22;5453;50.852;7.102;2022-11-20T12:16:54;6.70;99.90
10802;DHT22;5453;50.852;7.102;2022-11-20T12:19:30;6.70;99.90
10802;DHT22;5453;50.852;7.102;2022-11-20T12:22:10;6.70;99.90
10802;DHT22;5453;50.852;7.102;2022-11-20T12:24:55;6.70;99.90
10802;DHT22;5453;50.852;7.102;2022-11-20T12:27:44;6.70;99.90
10802;DHT22;5453;50.852;7.102;2022-11-20T12:30:32;6.70;99.90
10802;DHT22;5453;50.852;7.102;2022-11-20T12:33:28;6.70;99.90
10802;DHT22;5453;50.852;7.102;2022-11-20T12:36:24;6.70;99.90
10802;DHT22;5453;50.852;7.102;2022-11-20T12:39:21;6.70;99.90
10802;DHT22;5453;50.852;7.102;2022-11-20T12:48:46;6.80;99.90
10802;DHT22;5453;50.852;7.102;2022-11-20T12:51:47;6.80;99.90
10802;DHT22;5453;50.852;7.102;2022-11-20T12:54:59;6.80;99.90
10802;DHT22;5453;50.852;7.102;2022-11-20T12:57:46;6.80;99.90
10802;DHT22;5453;50.852;7.102;2022-11-20T13:00:23;6.90;99.90
10802;DHT22;5453;50.852;7.102;2022-11-20T13:06:16;6.90;99.90
10802;DHT22;5453;50.852;7.102;2022-11-20T13:08:53;6.90;99.90
10802;DHT22;5453;50.852;7.102;2022-11-20T13:11:32;6.80;99.90
10802;DHT22;5453;50.852;7.102;2022-11-20T13:14:24;6.90;99.90
10802;DHT22;5453;50.852;7.102;2022-11-20T13:17:05;6.90;99.90
10802;DHT22;5453;50.852;7.102;2022-11-20T13:19:47;7.00;99.90
10802;DHT22;5453;50.852;7.102;2022-11-20T13:22:28;7.00;99.90
10802;DHT22;5453;50.852;7.102;2022-11-20T13:25:01;7.00;99.90
10802;DHT22;5453;50.852;7.102;2022-11-20T13:27:33;7.00;99.90
10802;DHT22;5453;50.852;7.102;2022-11-20T13:30:14;7.00;99.90
10802;DHT22;5453;50.852;7.102;2022-11-20T13:32:49;7.00;99.90
10802;DHT22;5453;50.852;7.102;2022-11-20T13:35:30;7.10;99.90
10802;DHT22;5453;50.852;7.102;2022-11-20T13:38:06;7.10;99.90
10802;DHT22;5453;50.852;7.102;2022-11-20T13:40:51;7.20;99.90
10802;DHT22;5453;50.852;7.102;2022-11-20T13:43:32;7.20;99.90
10802;DHT22;5453;50.852;7.102;2022-11-20T13:46:08;7.20;99.90
10802;DHT22;5453;50.852;7.102;2022-11-20T13:48:42;7.20;99.90
10802;DHT22;5453;50.852;7.102;2022-11-20T13:51:28;7.20;99.90
10802;DHT22;5453;50.852;7.102;2022-11-20T13:54:18;7.20;99.90
10802;DHT22;5453;50.852;7.102;2022-11-20T13:57:09;7.20;99.90
10802;DHT22;5453;50.852;7.102;2022-11-20T13:59:56;7.20;99.90
10802;DHT22;5453;50.852;7.102;2022-11-20T14:02:30;7.20;99.90
10802;DHT22;5453;50.852;7.102;2022-11-20T14:05:04;7.30;99.90
10802;DHT22;5453;50.852;7.102;2022-11-20T14:07:41;7.20;99.90
10802;DHT22;5453;50.852;7.102;2022-11-20T14:10:21;7.20;99.90
10802;DHT22;5453;50.852;7.102;2022-11-20T14:12:55;7.30;99.90
10802;DHT22;5453;50.852;7.102;2022-11-20T14:15:29;7.30;99.90
10802;DHT22;5453;50.852;7.102;2022-11-20T14:18:12;7.30;99.90
10802;DHT22;5453;50.852;7.102;2022-11-20T14:20:46;7.30;99.90
10802;DHT22;5453;50.852;7.102;2022-11-20T14:23:25;7.30;99.90
10802;DHT22;5453;50.852;7.102;2022-11-20T14:25:58;7.30;99.90
10802;DHT22;5453;50.852;7.102;2022-11-20T14:28:31;7.30;99.90
10802;DHT22;5453;50.852;7.102;2022-11-20T14:31:03;7.30;99.90
10802;DHT22;5453;50.852;7.102;2022-11-20T14:33:36;7.30;99.90
10802;DHT22;5453;50.852;7.102;2022-11-20T14:36:16;7.30;99.90
10802;DHT22;5453;50.852;7.102;2022-11-20T14:38:51;7.30;99.90
10802;DHT22;5453;50.852;7.102;2022-11-20T14:41:24;7.30;99.90
10802;DHT22;5453;50.852;7.102;2022-11-20T14:43:57;7.30;99.90
10802;DHT22;5453;50.852;7.102;2022-11-20T14:46:31;7.40;99.90
10802;DHT22;5453;50.852;7.102;2022-11-20T14:49:05;7.30;99.90
10802;DHT22;5453;50.852;7.102;2022-11-20T14:51:38;7.40;99.90
10802;DHT22;5453;50.852;7.102;2022-11-20T14:54:14;7.40;99.90
10802;DHT22;5453;50.852;7.102;2022-11-20T14:56:53;7.40;99.90
10802;DHT22;5453;50.852;7.102;2022-11-20T14:59:28;7.40;99.90
10802;DHT22;5453;50.852;7.102;2022-11-20T15:02:04;7.40;99.90
10802;DHT22;5453;50.852;7.102;2022-11-20T15:04:45;7.40;99.90
10802;DHT22;5453;50.852;7.102;2022-11-20T15:07:25;7.40;99.90
10802;DHT22;5453;50.852;7.102;2022-11-20T15:10:04;7.40;99.90
10802;DHT22;5453;50.852;7.102;2022-11-20T15:12:40;7.40;99.90
10802;DHT22;5453;50.852;7.102;2022-11-20T15:15:21;7.40;99.90
10802;DHT22;5453;50.852;7.102;2022-11-20T15:17:56;7.40;99.90
10802;DHT22;5453;50.852;7.102;2022-11-20T15:20:31;7.40;99.90
10802;DHT22;5453;50.852;7.102;2022-11-20T15:23:07;7.40;99.90
10802;DHT22;5453;50.852;7.102;2022-11-20T15:25:42;7.50;99.90
10802;DHT22;5453;50.852;7.102;2022-11-20T15:28:18;7.50;99.90
10802;DHT22;5453;50.852;7.102;2022-11-20T15:30:52;7.50;99.90
10802;DHT22;5453;50.852;7.102;2022-11-20T15:33:26;7.50;99.90
10802;DHT22;5453;50.852;7.102;2022-11-20T15:35:58;7.50;99.90
10802;DHT22;5453;50.852;7.102;2022-11-20T15:38:31;7.60;99.90
10802;DHT22;5453;50.852;7.102;2022-11-20T15:41:04;7.60;99.90
10802;DHT22;5453;50.852;7.102;2022-11-20T15:43:37;7.60;99.90
10802;DHT22;5453;50.852;7.102;2022-11-20T15:46:11;7.60;99.90
10802;DHT22;5453;50.852;7.102;2022-11-20T15:48:50;7.60;99.90
10802;DHT22;5453;50.852;7.102;2022-11-20T15:51:27;7.60;99.90
10802;DHT22;5453;50.852;7.102;2022-11-20T15:54:03;7.60;99.90
10802;DHT22;5453;50.852;7.102;2022-11-20T15:56:42;7.50;99.90
10802;DHT22;5453;50.852;7.102;2022-11-20T15:59:15;7.50;99.90
10802;DHT22;5453;50.852;7.102;2022-11-20T16:01:47;7.50;99.90
10802;DHT22;5453;50.852;7.102;2022-11-20T16:04:19;7.50;99.90
10802;DHT22;5453;50.852;7.102;2022-11-20T16:06:51;7.50;99.90
10802;DHT22;5453;50.852;7.102;2022-11-20T16:09:23;7.50;99.90
10802;DHT22;5453;50.852;7.102;2022-11-20T16:11:56;7.50;99.90
10802;DHT22;5453;50.852;7.102;2022-11-20T16:14:29;7.50;99.90
10802;DHT22;5453;50.852;7.102;2022-11-20T16:17:19;7.50;99.90
10802;DHT22;5453;50.852;7.102;2022-11-20T16:20:15;7.60;99.90
10802;DHT22;5453;50.852;7.102;2022-11-20T16:22:47;7.50;99.90
10802;DHT22;5453;50.852;7.102;2022-11-20T16:25:19;7.50;99.90
10802;DHT22;5453;50.852;7.102;2022-11-20T16:27:53;7.50;99.90
10802;DHT22;5453;50.852;7.102;2022-11-20T16:30:25;7.50;99.90
10802;DHT22;5453;50.852;7.102;2022-11-20T16:32:58;7.50;99.90
10802;DHT22;5453;50.852;7.102;2022-11-20T16:35:30;7.40;99.90
10802;DHT22;5453;50.852;7.102;2022-11-20T16:38:03;7.40;99.90
10802;DHT22;5453;50.852;7.102;2022-11-20T16:40:35;7.40;99.90
10802;DHT22;5453;50.852;7.102;2022-11-20T16:43:10;7.40;99.90
10802;DHT22;5453;50.852;7.102;2022-11-20T16:45:45;7.40;99.90
10802;DHT22;5453;50.852;7.102;2022-11-20T16:48:17;7.40;99.90
10802;DHT22;5453;50.852;7.102;2022-11-20T16:50:51;7.40;99.90
10802;DHT22;5453;50.852;7.102;2022-11-20T16:53:24;7.40;99.90
10802;DHT22;5453;50.852;7.102;2022-11-20T16:55:56;7.40;99.90
10802;DHT22;5453;50.852;7.102;2022-11-20T16:58:30;7.40;99.90
10802;DHT22;5453;50.852;7.102;2022-11-20T17:01:05;7.40;99.90
10802;DHT22;5453;50.852;7.102;2022-11-20T17:03:42;7.40;99.90
10802;DHT22;5453;50.852;7.102;2022-11-20T17:06:17;7.40;99.90
10802;DHT22;5453;50.852;7.102;2022-11-20T17:08:52;7.40;99.90